KJFK

John F Kennedy International Airport

Code ICAO KJFK
Code IATA JFK
Nom John F Kennedy International Airport
Emplacement New York, New-York, US
Élévation 13 pieds / 4 mètres
Latitude 40.63980103
Longitude -73.77890015
METAR KJFK 080751Z 10004KT 10SM BKN085 OVC110 10/05 A2984 RMK AO2 SLP103 T01000050
Informations extras Afficher cartes et CFS
Afficher NOTAMS
Piste Longueur Largeur Surface Élévation
04L 12079 ft 200 ft Concrete - Grooved 12 ft
04R 8400 ft 200 ft ASP 13 ft
13L 10000 ft 200 ft Concrete 13 ft
13R 14511 ft 200 ft Concrete 13 ft
22R 12079 ft 200 ft Concrete - Grooved 13 ft
22L 8400 ft 200 ft ASP 13 ft
31R 10000 ft 200 ft Concrete 13 ft
31L 14511 ft 200 ft Concrete 13 ft